sensor_id;sensor_type;location;lat;lon;timestamp;P1;durP1;ratioP1;P2;durP2;ratioP2
60426;SDS011;46274;47.168;27.604;2023-03-08T00:02:21;41.93;;;15.83;;
60426;SDS011;46274;47.168;27.604;2023-03-08T00:08:23;58.77;;;18.90;;
60426;SDS011;46274;47.168;27.604;2023-03-08T00:14:26;78.27;;;24.30;;
60426;SDS011;46274;47.168;27.604;2023-03-08T00:20:34;53.40;;;18.73;;
60426;SDS011;46274;47.168;27.604;2023-03-08T00:26:37;52.20;;;19.17;;
60426;SDS011;46274;47.168;27.604;2023-03-08T00:32:39;82.67;;;29.73;;
60426;SDS011;46274;47.168;27.604;2023-03-08T00:38:42;63.60;;;24.03;;
60426;SDS011;46274;47.168;27.604;2023-03-08T00:44:46;42.50;;;17.10;;
60426;SDS011;46274;47.168;27.604;2023-03-08T00:50:52;54.63;;;20.27;;
60426;SDS011;46274;47.168;27.604;2023-03-08T00:56:55;46.00;;;18.03;;
60426;SDS011;46274;47.168;27.604;2023-03-08T01:02:57;38.97;;;15.63;;
60426;SDS011;46274;47.168;27.604;2023-03-08T01:09:00;45.20;;;22.60;;
60426;SDS011;46274;47.168;27.604;2023-03-08T01:15:03;48.20;;;20.43;;
60426;SDS011;46274;47.168;27.604;2023-03-08T01:21:06;47.77;;;16.87;;
60426;SDS011;46274;47.168;27.604;2023-03-08T01:27:08;35.30;;;15.20;;
60426;SDS011;46274;47.168;27.604;2023-03-08T01:33:11;32.53;;;14.90;;
60426;SDS011;46274;47.168;27.604;2023-03-08T01:39:13;41.53;;;16.13;;
60426;SDS011;46274;47.168;27.604;2023-03-08T01:51:58;68.07;;;28.47;;
60426;SDS011;46274;47.168;27.604;2023-03-08T01:58:17;46.27;;;19.10;;
60426;SDS011;46274;47.168;27.604;2023-03-08T02:04:19;38.83;;;16.57;;
60426;SDS011;46274;47.168;27.604;2023-03-08T02:10:22;30.73;;;13.60;;
60426;SDS011;46274;47.168;27.604;2023-03-08T02:16:24;26.17;;;11.43;;
60426;SDS011;46274;47.168;27.604;2023-03-08T02:22:27;31.90;;;12.57;;
60426;SDS011;46274;47.168;27.604;2023-03-08T02:28:29;31.67;;;14.37;;
60426;SDS011;46274;47.168;27.604;2023-03-08T02:34:34;43.03;;;16.40;;
60426;SDS011;46274;47.168;27.604;2023-03-08T02:40:37;40.80;;;15.70;;
60426;SDS011;46274;47.168;27.604;2023-03-08T02:46:50;42.70;;;18.93;;
60426;SDS011;46274;47.168;27.604;2023-03-08T02:52:54;40.47;;;17.23;;
60426;SDS011;46274;47.168;27.604;2023-03-08T02:58:57;24.70;;;10.50;;
60426;SDS011;46274;47.168;27.604;2023-03-08T03:05:09;17.20;;;8.73;;
60426;SDS011;46274;47.168;27.604;2023-03-08T03:11:24;15.77;;;8.47;;
60426;SDS011;46274;47.168;27.604;2023-03-08T03:17:47;17.33;;;8.10;;
60426;SDS011;46274;47.168;27.604;2023-03-08T03:24:07;157.77;;;54.67;;
60426;SDS011;46274;47.168;27.604;2023-03-08T03:30:09;97.47;;;34.33;;
60426;SDS011;46274;47.168;27.604;2023-03-08T03:36:18;16.17;;;7.73;;
60426;SDS011;46274;47.168;27.604;2023-03-08T03:42:29;14.47;;;7.10;;
60426;SDS011;46274;47.168;27.604;2023-03-08T03:48:45;14.80;;;7.37;;
60426;SDS011;46274;47.168;27.604;2023-03-08T03:54:52;11.57;;;7.30;;
60426;SDS011;46274;47.168;27.604;2023-03-08T04:01:19;11.63;;;7.07;;
60426;SDS011;46274;47.168;27.604;2023-03-08T04:07:34;14.00;;;6.93;;
60426;SDS011;46274;47.168;27.604;2023-03-08T04:13:43;19.77;;;7.57;;
60426;SDS011;46274;47.168;27.604;2023-03-08T04:19:52;17.83;;;8.47;;
60426;SDS011;46274;47.168;27.604;2023-03-08T04:26:02;15.47;;;8.40;;
60426;SDS011;46274;47.168;27.604;2023-03-08T04:32:05;22.60;;;9.20;;
60426;SDS011;46274;47.168;27.604;2023-03-08T04:38:09;16.77;;;7.23;;
60426;SDS011;46274;47.168;27.604;2023-03-08T04:44:16;23.90;;;11.57;;
60426;SDS011;46274;47.168;27.604;2023-03-08T04:50:18;9.30;;;5.40;;
60426;SDS011;46274;47.168;27.604;2023-03-08T04:56:27;12.90;;;6.63;;
60426;SDS011;46274;47.168;27.604;2023-03-08T05:02:29;22.37;;;10.13;;
60426;SDS011;46274;47.168;27.604;2023-03-08T05:08:49;21.47;;;9.30;;
60426;SDS011;46274;47.168;27.604;2023-03-08T05:14:55;9.53;;;5.70;;
60426;SDS011;46274;47.168;27.604;2023-03-08T05:21:06;12.03;;;5.13;;
60426;SDS011;46274;47.168;27.604;2023-03-08T05:27:17;15.53;;;6.10;;
60426;SDS011;46274;47.168;27.604;2023-03-08T05:33:36;13.97;;;5.33;;
60426;SDS011;46274;47.168;27.604;2023-03-08T05:39:55;11.40;;;5.17;;
60426;SDS011;46274;47.168;27.604;2023-03-08T05:46:01;12.70;;;6.17;;
60426;SDS011;46274;47.168;27.604;2023-03-08T05:52:19;17.03;;;5.73;;
60426;SDS011;46274;47.168;27.604;2023-03-08T05:58:22;13.63;;;8.03;;
60426;SDS011;46274;47.168;27.604;2023-03-08T06:04:24;20.37;;;6.10;;
60426;SDS011;46274;47.168;27.604;2023-03-08T06:10:27;19.27;;;8.90;;
60426;SDS011;46274;47.168;27.604;2023-03-08T06:16:29;16.20;;;6.07;;
60426;SDS011;46274;47.168;27.604;2023-03-08T06:22:33;14.30;;;6.00;;
60426;SDS011;46274;47.168;27.604;2023-03-08T06:28:37;17.50;;;7.70;;
60426;SDS011;46274;47.168;27.604;2023-03-08T06:34:43;12.50;;;5.43;;
60426;SDS011;46274;47.168;27.604;2023-03-08T06:40:55;18.73;;;7.27;;
60426;SDS011;46274;47.168;27.604;2023-03-08T06:46:58;16.07;;;7.03;;
60426;SDS011;46274;47.168;27.604;2023-03-08T06:53:06;17.23;;;7.40;;
60426;SDS011;46274;47.168;27.604;2023-03-08T06:59:09;17.83;;;7.63;;
60426;SDS011;46274;47.168;27.604;2023-03-08T07:05:17;17.80;;;8.00;;
60426;SDS011;46274;47.168;27.604;2023-03-08T07:11:21;16.43;;;8.00;;
60426;SDS011;46274;47.168;27.604;2023-03-08T07:17:28;11.67;;;5.90;;
60426;SDS011;46274;47.168;27.604;2023-03-08T07:23:57;11.43;;;5.00;;
60426;SDS011;46274;47.168;27.604;2023-03-08T07:30:03;19.90;;;9.50;;
60426;SDS011;46274;47.168;27.604;2023-03-08T07:36:09;23.13;;;8.53;;
60426;SDS011;46274;47.168;27.604;2023-03-08T07:42:15;25.57;;;6.90;;
60426;SDS011;46274;47.168;27.604;2023-03-08T08:01:44;9.47;;;4.93;;
60426;SDS011;46274;47.168;27.604;2023-03-08T08:14:26;14.17;;;7.00;;
60426;SDS011;46274;47.168;27.604;2023-03-08T08:26:48;16.30;;;6.43;;
60426;SDS011;46274;47.168;27.604;2023-03-08T08:33:01;17.77;;;7.23;;
60426;SDS011;46274;47.168;27.604;2023-03-08T08:39:10;12.07;;;5.47;;
60426;SDS011;46274;47.168;27.604;2023-03-08T08:45:30;11.30;;;5.50;;
60426;SDS011;46274;47.168;27.604;2023-03-08T08:51:45;11.83;;;5.53;;
60426;SDS011;46274;47.168;27.604;2023-03-08T08:57:56;12.63;;;5.07;;
60426;SDS011;46274;47.168;27.604;2023-03-08T09:03:59;9.23;;;4.27;;
60426;SDS011;46274;47.168;27.604;2023-03-08T09:10:10;9.10;;;3.47;;
60426;SDS011;46274;47.168;27.604;2023-03-08T09:16:33;6.27;;;3.40;;
60426;SDS011;46274;47.168;27.604;2023-03-08T09:22:40;8.50;;;3.33;;
60426;SDS011;46274;47.168;27.604;2023-03-08T09:49:20;5.33;;;3.50;;
60426;SDS011;46274;47.168;27.604;2023-03-08T10:24:34;9.17;;;2.70;;
60426;SDS011;46274;47.168;27.604;2023-03-08T10:31:18;9.23;;;4.60;;
60426;SDS011;46274;47.168;27.604;2023-03-08T10:37:28;7.10;;;3.10;;
60426;SDS011;46274;47.168;27.604;2023-03-08T10:43:56;6.07;;;2.60;;
60426;SDS011;46274;47.168;27.604;2023-03-08T10:50:13;7.37;;;2.50;;
60426;SDS011;46274;47.168;27.604;2023-03-08T11:17:22;5.63;;;2.20;;
60426;SDS011;46274;47.168;27.604;2023-03-08T11:23:53;14.47;;;3.07;;
60426;SDS011;46274;47.168;27.604;2023-03-08T11:50:52;9.43;;;3.00;;
60426;SDS011;46274;47.168;27.604;2023-03-08T11:57:14;11.57;;;2.83;;
60426;SDS011;46274;47.168;27.604;2023-03-08T12:16:52;5.43;;;2.57;;
60426;SDS011;46274;47.168;27.604;2023-03-08T12:36:16;5.37;;;2.60;;
60426;SDS011;46274;47.168;27.604;2023-03-08T12:55:28;9.07;;;2.90;;
60426;SDS011;46274;47.168;27.604;2023-03-08T13:28:49;7.67;;;2.70;;
60426;SDS011;46274;47.168;27.604;2023-03-08T13:48:11;4.77;;;2.83;;
60426;SDS011;46274;47.168;27.604;2023-03-08T13:54:24;21.03;;;2.80;;
60426;SDS011;46274;47.168;27.604;2023-03-08T14:34:29;14.97;;;5.93;;
60426;SDS011;46274;47.168;27.604;2023-03-08T14:40:46;7.73;;;3.17;;
60426;SDS011;46274;47.168;27.604;2023-03-08T14:47:26;6.80;;;3.30;;
60426;SDS011;46274;47.168;27.604;2023-03-08T15:01:02;10.97;;;2.90;;
60426;SDS011;46274;47.168;27.604;2023-03-08T15:07:22;8.37;;;3.97;;
60426;SDS011;46274;47.168;27.604;2023-03-08T15:47:18;11.03;;;3.83;;
60426;SDS011;46274;47.168;27.604;2023-03-08T16:00:27;15.73;;;5.57;;
60426;SDS011;46274;47.168;27.604;2023-03-08T16:06:31;16.77;;;3.60;;
60426;SDS011;46274;47.168;27.604;2023-03-08T16:12:41;8.53;;;3.73;;
60426;SDS011;46274;47.168;27.604;2023-03-08T16:18:53;8.90;;;3.67;;
60426;SDS011;46274;47.168;27.604;2023-03-08T16:24:58;5.77;;;2.90;;
60426;SDS011;46274;47.168;27.604;2023-03-08T16:31:18;5.67;;;3.13;;
60426;SDS011;46274;47.168;27.604;2023-03-08T16:37:51;6.73;;;2.90;;
60426;SDS011;46274;47.168;27.604;2023-03-08T16:44:00;15.33;;;4.67;;
60426;SDS011;46274;47.168;27.604;2023-03-08T16:50:11;13.93;;;5.63;;
60426;SDS011;46274;47.168;27.604;2023-03-08T16:56:25;10.63;;;4.60;;
60426;SDS011;46274;47.168;27.604;2023-03-08T17:02:51;7.57;;;4.20;;
60426;SDS011;46274;47.168;27.604;2023-03-08T17:09:00;16.97;;;7.70;;
60426;SDS011;46274;47.168;27.604;2023-03-08T17:15:02;12.37;;;6.07;;
60426;SDS011;46274;47.168;27.604;2023-03-08T17:21:11;15.07;;;5.47;;
60426;SDS011;46274;47.168;27.604;2023-03-08T17:27:13;13.13;;;4.97;;
60426;SDS011;46274;47.168;27.604;2023-03-08T17:33:25;15.07;;;5.80;;
60426;SDS011;46274;47.168;27.604;2023-03-08T17:40:03;19.07;;;8.53;;
60426;SDS011;46274;47.168;27.604;2023-03-08T17:46:25;25.00;;;8.03;;
60426;SDS011;46274;47.168;27.604;2023-03-08T17:52:38;20.40;;;7.00;;
60426;SDS011;46274;47.168;27.604;2023-03-08T17:58:49;26.53;;;9.30;;
60426;SDS011;46274;47.168;27.604;2023-03-08T18:05:02;28.17;;;7.67;;
60426;SDS011;46274;47.168;27.604;2023-03-08T18:11:04;18.90;;;6.20;;
60426;SDS011;46274;47.168;27.604;2023-03-08T18:17:14;9.17;;;3.87;;
60426;SDS011;46274;47.168;27.604;2023-03-08T18:23:23;9.53;;;4.43;;
60426;SDS011;46274;47.168;27.604;2023-03-08T18:29:43;13.13;;;4.80;;
60426;SDS011;46274;47.168;27.604;2023-03-08T18:35:52;20.53;;;8.10;;
60426;SDS011;46274;47.168;27.604;2023-03-08T18:42:26;18.27;;;7.63;;
60426;SDS011;46274;47.168;27.604;2023-03-08T18:48:31;20.57;;;9.07;;
60426;SDS011;46274;47.168;27.604;2023-03-08T18:54:42;22.40;;;9.70;;
60426;SDS011;46274;47.168;27.604;2023-03-08T19:00:51;18.40;;;8.80;;
60426;SDS011;46274;47.168;27.604;2023-03-08T19:07:03;20.73;;;10.83;;
60426;SDS011;46274;47.168;27.604;2023-03-08T19:13:13;25.00;;;11.57;;
60426;SDS011;46274;47.168;27.604;2023-03-08T19:19:15;21.57;;;8.83;;
60426;SDS011;46274;47.168;27.604;2023-03-08T19:25:35;17.27;;;8.07;;
60426;SDS011;46274;47.168;27.604;2023-03-08T19:32:09;24.00;;;10.73;;
60426;SDS011;46274;47.168;27.604;2023-03-08T19:38:22;19.53;;;7.03;;
60426;SDS011;46274;47.168;27.604;2023-03-08T19:44:38;19.30;;;9.47;;
60426;SDS011;46274;47.168;27.604;2023-03-08T19:50:53;22.67;;;10.93;;
60426;SDS011;46274;47.168;27.604;2023-03-08T19:57:08;14.87;;;7.70;;
60426;SDS011;46274;47.168;27.604;2023-03-08T20:03:32;43.37;;;16.67;;
60426;SDS011;46274;47.168;27.604;2023-03-08T20:09:51;32.70;;;13.03;;
60426;SDS011;46274;47.168;27.604;2023-03-08T20:16:22;22.07;;;8.90;;
60426;SDS011;46274;47.168;27.604;2023-03-08T20:22:29;18.23;;;8.10;;
60426;SDS011;46274;47.168;27.604;2023-03-08T20:28:30;21.97;;;10.80;;
60426;SDS011;46274;47.168;27.604;2023-03-08T20:34:32;33.20;;;13.57;;
60426;SDS011;46274;47.168;27.604;2023-03-08T20:41:01;24.20;;;11.37;;
60426;SDS011;46274;47.168;27.604;2023-03-08T20:47:42;37.80;;;17.63;;
60426;SDS011;46274;47.168;27.604;2023-03-08T20:53:47;33.80;;;15.27;;
60426;SDS011;46274;47.168;27.604;2023-03-08T21:00:07;36.57;;;15.73;;
60426;SDS011;46274;47.168;27.604;2023-03-08T21:06:28;28.93;;;14.17;;
60426;SDS011;46274;47.168;27.604;2023-03-08T21:12:39;38.03;;;17.43;;
60426;SDS011;46274;47.168;27.604;2023-03-08T21:18:54;60.10;;;24.40;;
60426;SDS011;46274;47.168;27.604;2023-03-08T21:25:09;52.40;;;21.27;;
60426;SDS011;46274;47.168;27.604;2023-03-08T21:31:26;36.20;;;14.20;;
60426;SDS011;46274;47.168;27.604;2023-03-08T21:37:36;41.70;;;18.07;;
60426;SDS011;46274;47.168;27.604;2023-03-08T21:43:46;29.40;;;12.60;;
60426;SDS011;46274;47.168;27.604;2023-03-08T21:49:54;20.73;;;9.63;;
60426;SDS011;46274;47.168;27.604;2023-03-08T21:55:57;17.90;;;8.30;;
60426;SDS011;46274;47.168;27.604;2023-03-08T22:02:10;24.13;;;10.80;;
60426;SDS011;46274;47.168;27.604;2023-03-08T22:08:16;10.50;;;4.53;;
60426;SDS011;46274;47.168;27.604;2023-03-08T22:14:20;11.20;;;3.93;;
60426;SDS011;46274;47.168;27.604;2023-03-08T22:20:23;16.03;;;5.83;;
60426;SDS011;46274;47.168;27.604;2023-03-08T22:26:44;17.30;;;6.37;;
60426;SDS011;46274;47.168;27.604;2023-03-08T22:33:00;6.43;;;3.20;;
60426;SDS011;46274;47.168;27.604;2023-03-08T22:39:14;6.47;;;2.70;;
60426;SDS011;46274;47.168;27.604;2023-03-08T22:45:24;7.30;;;3.17;;
60426;SDS011;46274;47.168;27.604;2023-03-08T22:51:26;6.47;;;2.70;;
60426;SDS011;46274;47.168;27.604;2023-03-08T22:57:53;8.87;;;2.87;;
60426;SDS011;46274;47.168;27.604;2023-03-08T23:03:56;6.70;;;2.80;;
60426;SDS011;46274;47.168;27.604;2023-03-08T23:10:05;12.37;;;2.87;;
60426;SDS011;46274;47.168;27.604;2023-03-08T23:16:16;4.03;;;2.40;;
60426;SDS011;46274;47.168;27.604;2023-03-08T23:22:21;6.53;;;2.47;;
60426;SDS011;46274;47.168;27.604;2023-03-08T23:28:24;4.17;;;2.67;;
60426;SDS011;46274;47.168;27.604;2023-03-08T23:34:26;8.33;;;2.30;;
60426;SDS011;46274;47.168;27.604;2023-03-08T23:40:39;4.17;;;1.90;;
60426;SDS011;46274;47.168;27.604;2023-03-08T23:46:41;3.77;;;1.97;;
60426;SDS011;46274;47.168;27.604;2023-03-08T23:52:54;5.17;;;2.30;;
60426;SDS011;46274;47.168;27.604;2023-03-08T23:59:08;5.07;;;2.10;;
